»·PEaware :: N143VT 0O2-1L1

N143VT :: 0O2-1L1

FLIGHT INFORMATION

Flight Status: Arrived
Operator: Privately registered:
United States
More flights under this callsign
Pilot: Anonymous 16492 (16492)
Aircraft: Unknown
(EPIC)
More flights by this aircraft type
Origin: 0O2 Baker
United States
Destination: 1L1 Lincoln Co
United States
More flights between these airports :: More routes between these airports
Route: CLARR V394 MMM V21 HUNKU
File this flight plan on PilotEdge
Remarks:
Altitude:
(Current/Filed)
15,000ft
Speed:
(Current/Filed)
300kts
Departed: 12-Oct-17 06:30 PM
Arrived: 12-Oct-17 07:15 PM
Distance/Time
Traveled:
170nm/0:45
Distance/Time
To Go:
Arrived

Flight Plot

Page will automatically refresh every two minutes.

Flight plan parsing failed; only flown route is shown


Map Options




Map Legend


Flown Route
Filed Route
Departure Airport
Arrival Airport
Navaid (VOR, NDB)
Fix

Horizontal Profiles

Position Reports

Time Latitude Longitude Heading Altitude Ground
Speed
12-Oct-17 18:31 35.287734 -116.081384 256 925ft 0kts
12-Oct-17 18:32 35.287734 -116.081384 256 925ft 0kts
12-Oct-17 18:33 35.287378 -116.081677 175 925ft 12kts
12-Oct-17 18:34 35.282875 -116.080106 162 929ft 19kts
12-Oct-17 18:35 35.282768 -116.080162 343 929ft 44kts
12-Oct-17 18:36 35.322868 -116.101771 359 3351ft 189kts
12-Oct-17 18:37 35.328035 -116.060580 140 7435ft 172kts
12-Oct-17 18:38 35.327532 -116.006132 23 9056ft 265kts
12-Oct-17 18:39 35.396135 -115.963981 35 9025ft 274kts
12-Oct-17 18:40 35.455000 -115.907393 39 9023ft 259kts
12-Oct-17 18:41 35.507942 -115.853341 40 9370ft 227kts
12-Oct-17 18:42 35.550740 -115.809064 39 10489ft 195kts
12-Oct-17 18:43 35.593649 -115.764544 37 11359ft 213kts
12-Oct-17 18:44 35.638103 -115.718551 36 13542ft 210kts
12-Oct-17 18:45 35.683097 -115.669201 41 15017ft 240kts
12-Oct-17 18:46 35.736258 -115.602352 43 15030ft 297kts
12-Oct-17 18:47 35.795714 -115.526194 43 15023ft 317kts
12-Oct-17 18:48 35.857329 -115.447024 43 15020ft 323kts
12-Oct-17 18:49 35.919753 -115.366640 43 15010ft 326kts
12-Oct-17 18:50 35.982293 -115.285930 44 15005ft 326kts
12-Oct-17 18:51 36.044493 -115.205450 44 15007ft 326kts
12-Oct-17 18:52 36.107197 -115.125164 43 14992ft 327kts
12-Oct-17 18:53 36.170755 -115.044725 43 14975ft 329kts
12-Oct-17 18:54 36.234751 -114.963563 44 14972ft 331kts
12-Oct-17 18:55 36.298829 -114.882023 44 14974ft 332kts
12-Oct-17 18:56 36.363052 -114.800134 44 14973ft 332kts
12-Oct-17 18:57 36.427493 -114.717776 44 14973ft 333kts
12-Oct-17 18:58 36.491579 -114.635660 44 14974ft 333kts
12-Oct-17 18:59 36.555984 -114.552931 44 14974ft 333kts
12-Oct-17 19:00 36.620126 -114.470327 44 14976ft 333kts
12-Oct-17 19:01 36.684290 -114.387481 44 14994ft 333kts
12-Oct-17 19:02 36.748319 -114.304613 44 15009ft 332kts
12-Oct-17 19:03 36.821787 -114.237076 29 15026ft 329kts
12-Oct-17 19:04 36.899450 -114.176436 29 15027ft 330kts
12-Oct-17 19:05 36.977010 -114.116026 29 15028ft 330kts
12-Oct-17 19:06 37.054706 -114.055384 29 15028ft 328kts
12-Oct-17 19:07 37.134516 -114.030174 321 15020ft 301kts
12-Oct-17 19:08 37.199211 -114.094309 327 15026ft 303kts
12-Oct-17 19:09 37.275481 -114.139599 331 15026ft 304kts
12-Oct-17 19:10 37.352895 -114.182097 332 15026ft 304kts
12-Oct-17 19:11 37.430645 -114.224467 332 15026ft 304kts
12-Oct-17 19:12 37.509364 -114.267576 333 14315ft 324kts
12-Oct-17 19:13 37.589556 -114.311534 334 12625ft 294kts
12-Oct-17 19:14 37.660768 -114.350425 335 10659ft 271kts
12-Oct-17 19:15 37.705047 -114.413053 286 8635ft 248kts
12-Oct-17 19:16 37.760149 -114.421320 12 6604ft 240kts
12-Oct-17 19:17 37.807198 -114.409057 121 6178ft 162kts
12-Oct-17 19:18 37.769261 -114.405517 185 5443ft 114kts
12-Oct-17 19:19 37.758047 -114.422474 351 5152ft 109kts
12-Oct-17 19:20 37.786360 -114.420907 0 4832ft 36kts
12-Oct-17 19:21 37.787617 -114.421413 6 4832ft 4kts
12-Oct-17 19:22 37.790395 -114.421295 5 4832ft 7kts
12-Oct-17 19:23 37.790535 -114.421286 32 4832ft 0kts
12-Oct-17 19:24 37.790535 -114.421286 32 4832ft 0kts
12-Oct-17 19:25 37.790535 -114.421286 32 4832ft 0kts
12-Oct-17 19:26 37.790535 -114.421286 32 4832ft 0kts
12-Oct-17 19:27 37.790535 -114.421286 32 4832ft 0kts

Navigation Log

Ident Type
Flight plan parsing failed, navigation log unavailable